Time;durP1;ratioP1;P1;durP2;ratioP2;P2;SDS_P1;SDS_P2;PMS_P1;PMS_P2;Temp;Humidity;BMP_temperature;BMP_pressure;BME280_temperature;BME280_humidity;BME280_pressure;Samples;Min_cycle;Max_cycle;Signal;HPM_P1;HPM_P2
2021/12/01 00:09:14;;;;;;;0.20;0.10;;;8.80;99.90;;;;;;20819211;28;20591;-69
2021/12/01 00:19:19;;;;;;;0.20;0.10;;;8.80;99.90;;;;;;20817677;28;20218;-69
2021/12/01 00:29:23;;;;;;;0.20;0.10;;;8.60;99.90;;;;;;20817733;28;20230;-69
2021/12/01 00:39:29;;;;;;;0.20;0.10;;;8.60;99.90;;;;;;20815341;28;20257;-69
2021/12/01 00:49:34;;;;;;;0.20;0.10;;;8.60;99.90;;;;;;20817512;28;20296;-69
2021/12/01 00:59:39;;;;;;;0.20;0.10;;;8.50;99.90;;;;;;20827543;28;20228;-68
2021/12/01 01:09:44;;;;;;;0.20;0.10;;;8.30;99.90;;;;;;20833130;28;20198;-68
2021/12/01 01:19:50;;;;;;;0.20;0.10;;;8.30;99.90;;;;;;20830751;28;20228;-68
2021/12/01 01:29:53;;;;;;;0.20;0.10;;;8.40;99.90;;;;;;20831245;28;20317;-70
2021/12/01 01:39:59;;;;;;;0.20;0.10;;;8.70;99.90;;;;;;20829723;28;20705;-69
2021/12/01 01:50:22;;;;;;;0.20;0.10;;;9.10;99.90;;;;;;20830541;28;20190;-71
2021/12/01 02:00:28;;;;;;;0.20;0.00;;;8.50;99.90;;;;;;20842365;22;20230;-74
2021/12/01 02:10:32;;;;;;;0.20;0.10;;;9.00;99.90;;;;;;20828262;28;20205;-72
2021/12/01 02:20:37;;;;;;;0.20;0.10;;;9.20;99.90;;;;;;20828574;28;20304;-72
2021/12/01 02:30:41;;;;;;;0.20;0.10;;;9.40;99.90;;;;;;20827545;28;20292;-71
2021/12/01 02:40:47;;;;;;;0.20;0.10;;;9.60;99.90;;;;;;20825200;28;20226;-75
2021/12/01 02:50:52;;;;;;;0.20;0.10;;;9.80;99.90;;;;;;20826338;28;20205;-72
2021/12/01 03:01:00;;;;;;;0.20;0.10;;;9.80;99.90;;;;;;20838370;22;20236;-77
2021/12/01 03:11:05;;;;;;;0.20;0.10;;;9.80;99.90;;;;;;20825927;28;20252;-77
2021/12/01 03:21:10;;;;;;;0.20;0.10;;;9.80;99.90;;;;;;20824340;28;20308;-77
2021/12/01 03:31:14;;;;;;;0.20;0.10;;;9.70;99.90;;;;;;20822296;28;20667;-76
2021/12/01 03:41:19;;;;;;;0.20;0.07;;;9.60;99.90;;;;;;20822556;28;20577;-77
2021/12/01 03:51:23;;;;;;;0.20;0.10;;;9.70;99.90;;;;;;20823156;28;20281;-77
2021/12/01 04:01:29;;;;;;;0.20;0.10;;;9.40;99.90;;;;;;20833443;23;20234;-69
2021/12/01 04:11:33;;;;;;;0.20;0.00;;;9.50;99.90;;;;;;20819086;28;20201;-69
2021/12/01 04:21:40;;;;;;;0.83;0.83;;;9.60;99.90;;;;;;20818985;28;20218;-69
2021/12/01 04:31:44;;;;;;;0.20;0.10;;;9.70;99.90;;;;;;20816281;28;20256;-69
2021/12/01 04:41:55;;;;;;;0.20;0.10;;;9.70;99.90;;;;;;20818234;28;20236;-70
2021/12/01 04:52:01;;;;;;;0.20;0.10;;;9.70;99.90;;;;;;20818033;28;20198;-70
2021/12/01 05:02:06;;;;;;;0.20;0.10;;;9.70;99.90;;;;;;20816810;28;20270;-71
2021/12/01 05:12:10;;;;;;;0.20;0.10;;;9.50;99.90;;;;;;20816671;28;20229;-70
2021/12/01 05:22:16;;;;;;;0.20;0.10;;;8.90;99.90;;;;;;20817028;28;20246;-71
2021/12/01 05:32:21;;;;;;;0.20;0.10;;;8.80;99.90;;;;;;20814899;28;20225;-70
2021/12/01 05:42:26;;;;;;;0.20;0.10;;;9.40;99.90;;;;;;20819177;28;20710;-70
2021/12/01 05:52:31;;;;;;;0.20;0.10;;;9.50;99.90;;;;;;20829173;28;20186;-72
2021/12/01 06:02:37;;;;;;;0.20;0.10;;;9.60;99.90;;;;;;20823780;28;20226;-71
2021/12/01 06:12:42;;;;;;;0.20;0.10;;;9.50;99.90;;;;;;20826897;28;20486;-71
2021/12/01 06:22:52;;;;;;;0.20;0.10;;;9.60;99.90;;;;;;20825786;28;20316;-69
2021/12/01 06:32:56;;;;;;;0.20;0.10;;;9.60;99.90;;;;;;20823448;28;20198;-68
2021/12/01 06:43:02;;;;;;;0.20;0.10;;;9.10;99.90;;;;;;20820488;28;20226;-70
2021/12/01 06:53:06;;;;;;;0.20;0.10;;;8.50;99.90;;;;;;20821328;28;20200;-73
2021/12/01 07:03:11;;;;;;;0.20;0.10;;;7.90;99.90;;;;;;20817087;28;20248;-70
2021/12/01 07:13:16;;;;;;;0.20;0.10;;;8.00;99.90;;;;;;20819183;28;20230;-69
2021/12/01 07:23:23;;;;;;;0.20;0.10;;;8.10;99.90;;;;;;20821568;28;20522;-67
2021/12/01 07:33:37;;;;;;;0.20;0.10;;;8.00;99.90;;;;;;20819712;28;20221;-70
2021/12/01 07:43:43;;;;;;;0.20;0.10;;;7.90;99.90;;;;;;20820194;28;20303;-68
2021/12/01 07:53:48;;;;;;;0.20;0.10;;;8.20;99.90;;;;;;20817686;28;20262;-68
2021/12/01 08:03:53;;;;;;;0.20;0.10;;;8.70;99.90;;;;;;20816859;28;20693;-70
2021/12/01 08:13:57;;;;;;;0.20;0.10;;;9.30;99.90;;;;;;20816955;28;20277;-73
2021/12/01 08:24:05;;;;;;;0.20;0.03;;;9.80;99.90;;;;;;20818452;28;20256;-70
2021/12/01 08:34:30;;;;;;;0.20;0.10;;;10.30;99.90;;;;;;20816179;28;20221;-71
2021/12/01 08:44:36;;;;;;;0.20;0.10;;;10.50;99.90;;;;;;20798902;28;20572;-70
2021/12/01 08:54:42;;;;;;;0.20;0.10;;;10.90;99.90;;;;;;20810984;28;20190;-71
2021/12/01 09:04:51;;;;;;;0.20;0.10;;;11.20;99.90;;;;;;20813079;28;20229;-69
2021/12/01 09:15:04;;;;;;;0.20;0.10;;;11.20;99.90;;;;;;20815098;28;20605;-71
2021/12/01 09:25:10;;;;;;;0.20;0.10;;;11.10;99.90;;;;;;20813026;28;20297;-70
2021/12/01 09:35:18;;;;;;;0.20;0.10;;;11.50;99.90;;;;;;20818109;28;20206;-69
2021/12/01 09:45:29;;;;;;;0.20;0.10;;;11.50;99.90;;;;;;20767865;28;20482;-70
2021/12/01 09:55:34;;;;;;;0.20;0.10;;;11.60;99.90;;;;;;20758414;28;20203;-70
2021/12/01 10:06:07;;;;;;;0.20;0.10;;;11.80;99.90;;;;;;20469738;29;20606;-70
2021/12/01 10:26:31;;;;;;;0.20;0.10;;;11.90;99.90;;;;;;21702255;22;20223;-76
2021/12/01 10:36:34;;;;;;;0.27;0.27;;;11.80;99.90;;;;;;20726636;28;20550;-78
2021/12/01 10:46:50;;;;;;;0.20;0.10;;;11.90;99.90;;;;;;20680764;28;20318;-78
2021/12/01 10:57:18;;;;;;;0.20;0.10;;;12.10;99.90;;;;;;20684123;28;20198;-82
2021/12/01 11:07:28;;;;;;;0.20;0.10;;;12.30;99.90;;;;;;20719517;28;20231;-75
2021/12/01 11:17:41;;;;;;;1.13;1.13;;;11.90;99.90;;;;;;20735560;28;20253;-84
2021/12/01 11:27:46;;;;;;;0.20;0.10;;;11.70;99.90;;;;;;20733328;28;20340;-76
2021/12/01 11:37:55;;;;;;;0.20;0.10;;;12.00;99.90;;;;;;20729866;28;20250;-80
2021/12/01 11:48:01;;;;;;;0.20;0.10;;;12.30;99.90;;;;;;20730122;28;20209;-82
2021/12/01 11:58:05;;;;;;;0.20;0.10;;;12.20;99.90;;;;;;20720614;28;20854;-82
2021/12/01 12:08:31;;;;;;;0.20;0.10;;;12.90;99.90;;;;;;20729897;28;20691;-77
2021/12/01 12:18:53;;;;;;;0.20;0.10;;;13.50;99.90;;;;;;20728918;28;20333;-80
2021/12/01 12:29:05;;;;;;;0.20;0.10;;;13.50;99.90;;;;;;20648257;28;20266;-80
2021/12/01 12:39:23;;;;;;;0.20;0.10;;;14.40;99.90;;;;;;20656869;28;20609;-81
2021/12/01 12:49:40;;;;;;;0.20;0.00;;;15.90;99.90;;;;;;20641050;28;20207;-83
2021/12/01 12:59:44;;;;;;;0.20;0.00;;;16.10;99.90;;;;;;20658316;28;20726;-79
2021/12/01 13:10:09;;;;;;;0.20;0.10;;;17.40;99.90;;;;;;20658976;28;20298;-84
2021/12/01 13:20:53;;;;;;;0.20;0.10;;;17.20;99.90;;;;;;20660472;28;20325;-82
2021/12/01 13:31:03;;;;;;;0.20;0.10;;;15.00;99.90;;;;;;20718811;28;20210;-81
2021/12/01 13:41:13;;;;;;;0.20;0.10;;;16.20;99.90;;;;;;20719577;28;20618;-78
2021/12/01 13:51:18;;;;;;;0.20;0.00;;;16.90;99.90;;;;;;20721160;28;20260;-85
2021/12/01 14:11:45;;;;;;;0.20;0.10;;;17.90;99.90;;;;;;21630361;22;20319;-83
2021/12/01 14:21:49;;;;;;;0.20;0.10;;;18.60;99.90;;;;;;20661755;28;20233;-73
2021/12/01 14:32:00;;;;;;;0.20;0.10;;;18.50;99.90;;;;;;20663084;28;20223;-77
2021/12/01 14:42:05;;;;;;;0.20;0.10;;;16.20;99.90;;;;;;20655994;28;20711;-78
2021/12/01 14:52:19;;;;;;;0.20;0.10;;;15.80;99.90;;;;;;20661361;28;20195;-80
2021/12/01 15:02:25;;;;;;;0.20;0.10;;;15.20;99.90;;;;;;20651631;28;20599;-77
2021/12/01 15:12:32;;;;;;;0.20;0.10;;;15.00;99.90;;;;;;20649125;28;20227;-78
2021/12/01 15:22:36;;;;;;;0.20;0.10;;;14.90;99.90;;;;;;20657769;28;20226;-76
2021/12/01 15:32:45;;;;;;;0.20;0.10;;;14.70;99.90;;;;;;20659737;28;20203;-78
2021/12/01 15:42:49;;;;;;;0.20;0.10;;;14.70;99.90;;;;;;20658766;28;20317;-80
2021/12/01 15:52:55;;;;;;;0.20;0.00;;;14.30;99.90;;;;;;20660436;28;20802;-80
2021/12/01 16:02:59;;;;;;;0.20;0.10;;;14.30;99.90;;;;;;20661748;28;20223;-81
2021/12/01 16:13:04;;;;;;;0.20;0.00;;;14.00;99.90;;;;;;20655740;28;20297;-78
2021/12/01 16:23:14;;;;;;;0.20;0.10;;;13.70;99.90;;;;;;20654723;28;20227;-77
2021/12/01 16:33:28;;;;;;;0.20;0.10;;;13.40;99.90;;;;;;20656395;28;20207;-77
2021/12/01 16:43:32;;;;;;;0.20;0.10;;;13.30;99.90;;;;;;20646676;28;20322;-82
2021/12/01 16:53:38;;;;;;;0.20;0.10;;;13.20;99.90;;;;;;20646647;28;20253;-78
2021/12/01 17:03:48;;;;;;;0.20;0.10;;;13.10;99.90;;;;;;20644646;28;20625;-75
2021/12/01 17:13:54;;;;;;;0.20;0.10;;;13.00;99.90;;;;;;20642829;28;20318;-74
2021/12/01 17:23:57;;;;;;;0.20;0.10;;;12.90;99.90;;;;;;20642243;28;20227;-79
2021/12/01 17:34:02;;;;;;;0.20;0.20;;;12.60;99.90;;;;;;20650413;28;20227;-82
2021/12/01 17:44:06;;;;;;;0.20;0.10;;;12.00;99.90;;;;;;20647145;28;20294;-80
2021/12/01 17:54:11;;;;;;;0.20;0.10;;;11.70;99.90;;;;;;20669705;28;20307;-79
2021/12/01 18:04:15;;;;;;;0.80;0.80;;;11.50;99.90;;;;;;20659953;28;20261;-81
2021/12/01 18:14:23;;;;;;;0.20;0.10;;;11.10;99.90;;;;;;20664752;28;20558;-82
2021/12/01 18:24:27;;;;;;;0.20;0.10;;;11.20;99.90;;;;;;20668731;28;20779;-79
2021/12/01 18:34:32;;;;;;;0.20;0.10;;;11.10;99.90;;;;;;20664329;28;20225;-79
2021/12/01 18:44:39;;;;;;;0.20;0.10;;;11.00;99.90;;;;;;20665767;28;20223;-77
2021/12/01 18:54:45;;;;;;;0.20;0.10;;;11.00;99.90;;;;;;20664740;28;20311;-77
2021/12/01 19:05:09;;;;;;;0.20;0.10;;;10.90;99.90;;;;;;20662074;28;20247;-77
2021/12/01 19:15:14;;;;;;;0.20;0.10;;;10.90;99.90;;;;;;20658664;28;20290;-79
2021/12/01 19:25:19;;;;;;;0.20;0.10;;;10.80;99.90;;;;;;20660903;28;20259;-78
2021/12/01 19:35:25;;;;;;;0.40;0.40;;;10.60;99.90;;;;;;20657567;28;20295;-78
2021/12/01 19:45:29;;;;;;;0.20;0.10;;;10.60;99.90;;;;;;20640579;28;20274;-76
2021/12/01 19:55:34;;;;;;;0.20;0.10;;;10.70;99.90;;;;;;20650588;28;20202;-77
2021/12/01 20:05:38;;;;;;;0.20;0.10;;;10.70;99.90;;;;;;20655962;28;20337;-79
2021/12/01 20:15:43;;;;;;;0.20;0.20;;;10.70;99.90;;;;;;20657445;28;20199;-81
2021/12/01 20:25:47;;;;;;;0.27;0.20;;;11.00;99.90;;;;;;20657683;28;20233;-78
2021/12/01 20:35:55;;;;;;;0.20;0.10;;;11.20;99.90;;;;;;20639309;28;20275;-77
2021/12/01 20:46:09;;;;;;;0.20;0.10;;;11.10;99.90;;;;;;20648483;28;20219;-81
2021/12/01 20:56:33;;;;;;;0.20;0.20;;;11.10;99.90;;;;;;20656073;28;20314;-81
2021/12/01 21:06:40;;;;;;;0.20;0.10;;;11.00;99.90;;;;;;20658978;28;20227;-82
2021/12/01 21:16:46;;;;;;;0.43;0.43;;;10.80;99.90;;;;;;20670201;28;20214;-82
2021/12/01 21:26:50;;;;;;;0.20;0.10;;;10.90;99.90;;;;;;20676249;28;20222;-77
2021/12/01 21:36:54;;;;;;;0.20;0.10;;;10.80;99.90;;;;;;20669438;28;20291;-79
2021/12/01 21:46:59;;;;;;;0.20;0.10;;;10.70;99.90;;;;;;20670193;28;20590;-78
2021/12/01 21:57:06;;;;;;;0.20;0.10;;;10.60;99.90;;;;;;20670760;28;20195;-77
2021/12/01 22:07:10;;;;;;;0.20;0.10;;;10.50;99.90;;;;;;20668560;28;20227;-76
2021/12/01 22:17:19;;;;;;;0.20;0.10;;;10.40;99.90;;;;;;20668212;28;20210;-80
2021/12/01 22:27:29;;;;;;;0.20;0.17;;;10.30;99.90;;;;;;20666034;28;20314;-78
2021/12/01 22:37:36;;;;;;;0.20;0.10;;;10.20;99.90;;;;;;20614163;28;20203;-78
2021/12/01 22:47:41;;;;;;;0.20;0.10;;;10.30;99.90;;;;;;20591280;28;20233;-76
2021/12/01 22:57:50;;;;;;;0.20;0.10;;;10.60;99.90;;;;;;20667463;28;20278;-77
2021/12/01 23:07:55;;;;;;;0.20;0.17;;;10.70;99.90;;;;;;20666397;28;20262;-79
2021/12/01 23:18:00;;;;;;;0.57;0.57;;;10.60;99.90;;;;;;20663291;28;20213;-76
2021/12/01 23:28:04;;;;;;;0.20;0.10;;;10.40;99.90;;;;;;20660687;28;20234;-75
2021/12/01 23:38:09;;;;;;;0.83;0.83;;;10.30;99.90;;;;;;20659708;28;20208;-76
2021/12/01 23:48:25;;;;;;;0.20;0.10;;;10.30;99.90;;;;;;20659649;28;20620;-77
2021/12/01 23:58:30;;;;;;;1.83;0.93;;;10.40;99.90;;;;;;20663015;28;20227;-79
